sensor_id;sensor_type;location;lat;lon;timestamp;pressure;altitude;pressure_sealevel;temperature;humidity
64644;BME280;51056;50.330;7.914;2023-08-20T00:03:02;101034.78;;;20.78;100.00
64644;BME280;51056;50.330;7.914;2023-08-20T00:06:06;101034.09;;;20.76;100.00
64644;BME280;51056;50.330;7.914;2023-08-20T00:09:12;101039.66;;;20.73;100.00
64644;BME280;51056;50.330;7.914;2023-08-20T00:12:15;101035.84;;;20.65;100.00
64644;BME280;51056;50.330;7.914;2023-08-20T00:15:20;101032.38;;;20.65;100.00
64644;BME280;51056;50.330;7.914;2023-08-20T00:18:25;101035.03;;;20.65;100.00
64644;BME280;51056;50.330;7.914;2023-08-20T00:21:31;101034.44;;;20.61;100.00
64644;BME280;51056;50.330;7.914;2023-08-20T00:24:35;101025.03;;;20.57;100.00
64644;BME280;51056;50.330;7.914;2023-08-20T00:27:39;101031.06;;;20.59;100.00
64644;BME280;51056;50.330;7.914;2023-08-20T00:30:43;101031.06;;;20.59;100.00
64644;BME280;51056;50.330;7.914;2023-08-20T00:33:47;101029.66;;;20.55;100.00
64644;BME280;51056;50.330;7.914;2023-08-20T00:36:50;101034.97;;;20.55;100.00
64644;BME280;51056;50.330;7.914;2023-08-20T00:39:54;101028.88;;;20.64;100.00
64644;BME280;51056;50.330;7.914;2023-08-20T00:42:58;101033.50;;;20.72;100.00
64644;BME280;51056;50.330;7.914;2023-08-20T00:46:01;101034.44;;;20.61;100.00
64644;BME280;51056;50.330;7.914;2023-08-20T00:49:05;101026.22;;;20.64;100.00
64644;BME280;51056;50.330;7.914;2023-08-20T00:52:14;101035.84;;;20.65;100.00
64644;BME280;51056;50.330;7.914;2023-08-20T00:55:18;101030.75;;;20.53;100.00
64644;BME280;51056;50.330;7.914;2023-08-20T00:58:23;101022.31;;;20.48;100.00
64644;BME280;51056;50.330;7.914;2023-08-20T01:01:28;101034.19;;;20.43;100.00
64644;BME280;51056;50.330;7.914;2023-08-20T01:04:34;101033.34;;;20.43;100.00
64644;BME280;51056;50.330;7.914;2023-08-20T01:11:05;101037.50;;;20.36;100.00
64644;BME280;51056;50.330;7.914;2023-08-20T01:14:17;101041.84;;;20.37;100.00
64644;BME280;51056;50.330;7.914;2023-08-20T01:17:20;101044.75;;;20.34;100.00
64644;BME280;51056;50.330;7.914;2023-08-20T01:20:28;101052.56;;;20.35;100.00
64644;BME280;51056;50.330;7.914;2023-08-20T01:27:29;101052.72;;;20.34;100.00
64644;BME280;51056;50.330;7.914;2023-08-20T01:30:38;101052.13;;;20.30;100.00
64644;BME280;51056;50.330;7.914;2023-08-20T01:33:43;101060.22;;;20.29;100.00
64644;BME280;51056;50.330;7.914;2023-08-20T01:36:46;101066.50;;;20.28;100.00
64644;BME280;51056;50.330;7.914;2023-08-20T01:39:49;101065.72;;;20.37;100.00
64644;BME280;51056;50.330;7.914;2023-08-20T01:42:53;101061.00;;;20.40;100.00
64644;BME280;51056;50.330;7.914;2023-08-20T01:45:56;101058.28;;;20.31;100.00
64644;BME280;51056;50.330;7.914;2023-08-20T01:48:59;101069.44;;;20.25;100.00
64644;BME280;51056;50.330;7.914;2023-08-20T01:52:03;101073.56;;;20.17;100.00
64644;BME280;51056;50.330;7.914;2023-08-20T01:55:06;101079.13;;;20.14;100.00
64644;BME280;51056;50.330;7.914;2023-08-20T01:58:10;101077.56;;;20.12;100.00
64644;BME280;51056;50.330;7.914;2023-08-20T02:01:15;101073.84;;;20.14;100.00
64644;BME280;51056;50.330;7.914;2023-08-20T02:04:18;101078.81;;;20.08;100.00
64644;BME280;51056;50.330;7.914;2023-08-20T02:07:22;101074.00;;;20.02;100.00
64644;BME280;51056;50.330;7.914;2023-08-20T02:10:25;101068.81;;;20.00;100.00
64644;BME280;51056;50.330;7.914;2023-08-20T02:13:29;101072.84;;;19.94;100.00
64644;BME280;51056;50.330;7.914;2023-08-20T02:16:32;101069.53;;;20.02;100.00
64644;BME280;51056;50.330;7.914;2023-08-20T02:19:36;101073.84;;;20.14;100.00
64644;BME280;51056;50.330;7.914;2023-08-20T02:22:40;101072.16;;;20.13;100.00
64644;BME280;51056;50.330;7.914;2023-08-20T02:25:44;101065.66;;;20.06;100.00
64644;BME280;51056;50.330;7.914;2023-08-20T02:28:47;101060.59;;;20.03;100.00
64644;BME280;51056;50.330;7.914;2023-08-20T02:31:51;101053.88;;;19.99;100.00
64644;BME280;51056;50.330;7.914;2023-08-20T02:34:54;101049.53;;;19.98;100.00
64644;BME280;51056;50.330;7.914;2023-08-20T02:37:58;101042.53;;;19.97;100.00
64644;BME280;51056;50.330;7.914;2023-08-20T02:41:03;101045.19;;;19.97;100.00
64644;BME280;51056;50.330;7.914;2023-08-20T02:44:06;101042.19;;;19.90;100.00
64644;BME280;51056;50.330;7.914;2023-08-20T02:47:10;101042.09;;;19.92;100.00
64644;BME280;51056;50.330;7.914;2023-08-20T02:50:13;101048.50;;;19.89;100.00
64644;BME280;51056;50.330;7.914;2023-08-20T02:53:18;101041.00;;;19.94;100.00
64644;BME280;51056;50.330;7.914;2023-08-20T02:56:22;101037.88;;;19.89;100.00
64644;BME280;51056;50.330;7.914;2023-08-20T02:59:28;101039.09;;;19.85;100.00
64644;BME280;51056;50.330;7.914;2023-08-20T03:02:31;101035.88;;;19.82;100.00
64644;BME280;51056;50.330;7.914;2023-08-20T03:05:35;101038.06;;;19.77;100.00
64644;BME280;51056;50.330;7.914;2023-08-20T03:08:38;101045.53;;;19.71;100.00
64644;BME280;51056;50.330;7.914;2023-08-20T03:11:42;101050.16;;;19.69;100.00
64644;BME280;51056;50.330;7.914;2023-08-20T03:14:46;101057.53;;;19.66;100.00
64644;BME280;51056;50.330;7.914;2023-08-20T03:17:49;101060.75;;;19.58;100.00
64644;BME280;51056;50.330;7.914;2023-08-20T03:20:54;101061.72;;;19.57;100.00
64644;BME280;51056;50.330;7.914;2023-08-20T03:23:58;101064.63;;;19.54;100.00
64644;BME280;51056;50.330;7.914;2023-08-20T03:27:04;101070.69;;;19.45;100.00
64644;BME280;51056;50.330;7.914;2023-08-20T03:30:10;101062.25;;;19.40;100.00
64644;BME280;51056;50.330;7.914;2023-08-20T03:33:13;101072.84;;;19.40;100.00
64644;BME280;51056;50.330;7.914;2023-08-20T03:36:17;101073.38;;;19.34;100.00
64644;BME280;51056;50.330;7.914;2023-08-20T03:39:21;101070.94;;;19.42;100.00
64644;BME280;51056;50.330;7.914;2023-08-20T03:42:24;101081.28;;;19.45;100.00
64644;BME280;51056;50.330;7.914;2023-08-20T03:45:28;101079.25;;;19.37;100.00
64644;BME280;51056;50.330;7.914;2023-08-20T03:48:33;101083.25;;;19.32;100.00
64644;BME280;51056;50.330;7.914;2023-08-20T03:51:37;101089.28;;;19.22;100.00
64644;BME280;51056;50.330;7.914;2023-08-20T03:54:40;101088.19;;;19.25;100.00
64644;BME280;51056;50.330;7.914;2023-08-20T03:57:44;101091.94;;;19.22;100.00
64644;BME280;51056;50.330;7.914;2023-08-20T04:00:47;101093.50;;;19.25;100.00
64644;BME280;51056;50.330;7.914;2023-08-20T04:03:53;101094.59;;;19.22;100.00
64644;BME280;51056;50.330;7.914;2023-08-20T04:06:56;101099.16;;;19.20;100.00
64644;BME280;51056;50.330;7.914;2023-08-20T04:09:59;101104.81;;;19.27;100.00
64644;BME280;51056;50.330;7.914;2023-08-20T04:13:03;101104.56;;;19.30;100.00
64644;BME280;51056;50.330;7.914;2023-08-20T04:16:06;101104.69;;;19.28;100.00
64644;BME280;51056;50.330;7.914;2023-08-20T04:19:10;101099.59;;;19.37;100.00
64644;BME280;51056;50.330;7.914;2023-08-20T04:22:13;101085.41;;;19.38;100.00
64644;BME280;51056;50.330;7.914;2023-08-20T04:25:17;101094.69;;;19.32;100.00
64644;BME280;51056;50.330;7.914;2023-08-20T04:28:20;101104.22;;;19.35;100.00
64644;BME280;51056;50.330;7.914;2023-08-20T04:31:23;101101.31;;;19.38;100.00
64644;BME280;51056;50.330;7.914;2023-08-20T04:34:38;101101.81;;;19.32;100.00
64644;BME280;51056;50.330;7.914;2023-08-20T04:37:42;101107.47;;;19.27;100.00
64644;BME280;51056;50.330;7.914;2023-08-20T04:40:46;101108.31;;;19.27;100.00
64644;BME280;51056;50.330;7.914;2023-08-20T04:43:50;101105.69;;;19.27;100.00
64644;BME280;51056;50.330;7.914;2023-08-20T04:46:54;101121.81;;;19.24;100.00
64644;BME280;51056;50.330;7.914;2023-08-20T04:49:58;101119.53;;;19.20;100.00
64644;BME280;51056;50.330;7.914;2023-08-20T04:53:02;101120.84;;;19.25;100.00
64644;BME280;51056;50.330;7.914;2023-08-20T04:56:05;101125.78;;;19.30;100.00
64644;BME280;51056;50.330;7.914;2023-08-20T04:59:08;101124.81;;;19.31;100.00
64644;BME280;51056;50.330;7.914;2023-08-20T05:02:29;101126.63;;;19.42;100.00
64644;BME280;51056;50.330;7.914;2023-08-20T05:05:35;101133.84;;;19.51;100.00
64644;BME280;51056;50.330;7.914;2023-08-20T05:08:39;101136.34;;;19.52;100.00
64644;BME280;51056;50.330;7.914;2023-08-20T05:11:45;101145.88;;;19.55;100.00
64644;BME280;51056;50.330;7.914;2023-08-20T05:14:48;101138.31;;;19.50;100.00
64644;BME280;51056;50.330;7.914;2023-08-20T05:17:51;101156.50;;;19.55;100.00
64644;BME280;51056;50.330;7.914;2023-08-20T05:20:54;101154.31;;;19.60;100.00
64644;BME280;51056;50.330;7.914;2023-08-20T05:23:58;101160.13;;;19.54;100.00
64644;BME280;51056;50.330;7.914;2023-08-20T05:31:24;101162.28;;;19.60;100.00
64644;BME280;51056;50.330;7.914;2023-08-20T05:34:28;101160.13;;;19.54;100.00
64644;BME280;51056;50.330;7.914;2023-08-20T05:37:32;101161.44;;;19.48;100.00
64644;BME280;51056;50.330;7.914;2023-08-20T05:40:36;101161.44;;;19.48;100.00
64644;BME280;51056;50.330;7.914;2023-08-20T05:43:39;101160.84;;;19.56;100.00
64644;BME280;51056;50.330;7.914;2023-08-20T05:46:43;101160.00;;;19.67;100.00
64644;BME280;51056;50.330;7.914;2023-08-20T05:49:49;101153.81;;;19.78;100.00
64644;BME280;51056;50.330;7.914;2023-08-20T05:52:52;101162.53;;;19.68;100.00
64644;BME280;51056;50.330;7.914;2023-08-20T05:55:55;101163.41;;;19.69;100.00
64644;BME280;51056;50.330;7.914;2023-08-20T05:59:23;101163.00;;;19.62;100.00
64644;BME280;51056;50.330;7.914;2023-08-20T06:20:43;101181.59;;;19.73;100.00
64644;BME280;51056;50.330;7.914;2023-08-20T06:23:46;101180.50;;;19.76;100.00
64644;BME280;51056;50.330;7.914;2023-08-20T06:26:51;101175.53;;;19.83;100.00
64644;BME280;51056;50.330;7.914;2023-08-20T06:29:54;101181.19;;;19.89;100.00
64644;BME280;51056;50.330;7.914;2023-08-20T06:32:58;101180.09;;;19.92;100.00
64644;BME280;51056;50.330;7.914;2023-08-20T06:36:01;101173.78;;;20.04;100.00
64644;BME280;51056;50.330;7.914;2023-08-20T06:39:04;101175.81;;;20.12;100.00
64644;BME280;51056;50.330;7.914;2023-08-20T06:42:08;101182.69;;;20.14;100.00
64644;BME280;51056;50.330;7.914;2023-08-20T06:45:11;101177.38;;;20.14;100.00
64644;BME280;51056;50.330;7.914;2023-08-20T06:48:14;101180.63;;;20.18;100.00
64644;BME280;51056;50.330;7.914;2023-08-20T06:51:20;101174.22;;;20.20;100.00
64644;BME280;51056;50.330;7.914;2023-08-20T06:54:24;101179.59;;;20.30;100.00
64644;BME280;51056;50.330;7.914;2023-08-20T06:57:27;101179.94;;;20.37;100.00
64644;BME280;51056;50.330;7.914;2023-08-20T07:00:30;101183.50;;;20.47;100.00
64644;BME280;51056;50.330;7.914;2023-08-20T07:03:38;101177.56;;;20.55;100.00
64644;BME280;51056;50.330;7.914;2023-08-20T07:06:42;101173.88;;;20.67;100.00
64644;BME280;51056;50.330;7.914;2023-08-20T07:09:45;101172.47;;;20.84;100.00
64644;BME280;51056;50.330;7.914;2023-08-20T07:12:48;101172.78;;;20.90;100.00
64644;BME280;51056;50.330;7.914;2023-08-20T07:15:52;101172.31;;;21.06;100.00
64644;BME280;51056;50.330;7.914;2023-08-20T07:18:55;101166.78;;;21.19;100.00
64644;BME280;51056;50.330;7.914;2023-08-20T07:21:59;101164.56;;;21.34;100.00
64644;BME280;51056;50.330;7.914;2023-08-20T07:25:02;101162.41;;;21.39;100.00
64644;BME280;51056;50.330;7.914;2023-08-20T07:28:07;101160.59;;;21.49;100.00
64644;BME280;51056;50.330;7.914;2023-08-20T07:31:11;101159.06;;;21.56;100.00
64644;BME280;51056;50.330;7.914;2023-08-20T07:34:14;101163.59;;;21.66;100.00
64644;BME280;51056;50.330;7.914;2023-08-20T07:37:18;101164.44;;;21.76;100.00
64644;BME280;51056;50.330;7.914;2023-08-20T07:40:22;101164.88;;;21.81;100.00
64644;BME280;51056;50.330;7.914;2023-08-20T07:43:26;101165.06;;;21.89;100.00
64644;BME280;51056;50.330;7.914;2023-08-20T07:46:32;101161.97;;;21.94;100.00
64644;BME280;51056;50.330;7.914;2023-08-20T07:49:36;101153.53;;;21.98;100.00
64644;BME280;51056;50.330;7.914;2023-08-20T07:52:42;101152.88;;;22.06;100.00
64644;BME280;51056;50.330;7.914;2023-08-20T07:55:49;101162.56;;;22.17;100.00
64644;BME280;51056;50.330;7.914;2023-08-20T07:58:53;101161.72;;;22.26;100.00
64644;BME280;51056;50.330;7.914;2023-08-20T08:01:56;101161.72;;;22.36;100.00
64644;BME280;51056;50.330;7.914;2023-08-20T08:04:59;101163.97;;;22.40;100.00
64644;BME280;51056;50.330;7.914;2023-08-20T08:08:03;101154.72;;;22.44;100.00
64644;BME280;51056;50.330;7.914;2023-08-20T08:11:06;101166.47;;;22.51;99.15
64644;BME280;51056;50.330;7.914;2023-08-20T08:14:10;101167.59;;;22.59;99.01
64644;BME280;51056;50.330;7.914;2023-08-20T08:17:14;101167.28;;;22.62;97.08
64644;BME280;51056;50.330;7.914;2023-08-20T08:20:18;101168.44;;;22.69;97.81
64644;BME280;51056;50.330;7.914;2023-08-20T08:23:22;101172.63;;;22.71;96.41
64644;BME280;51056;50.330;7.914;2023-08-20T08:26:25;101181.31;;;22.73;96.73
64644;BME280;51056;50.330;7.914;2023-08-20T08:29:29;101178.22;;;22.78;96.25
64644;BME280;51056;50.330;7.914;2023-08-20T08:32:33;101179.19;;;22.77;94.51
64644;BME280;51056;50.330;7.914;2023-08-20T08:35:37;101170.88;;;22.90;94.08
64644;BME280;51056;50.330;7.914;2023-08-20T08:38:40;101168.09;;;23.01;94.01
64644;BME280;51056;50.330;7.914;2023-08-20T08:41:48;101175.22;;;23.10;91.98
64644;BME280;51056;50.330;7.914;2023-08-20T08:44:52;101177.19;;;23.08;92.85
64644;BME280;51056;50.330;7.914;2023-08-20T08:47:56;101175.88;;;23.22;91.74
64644;BME280;51056;50.330;7.914;2023-08-20T08:51:00;101180.31;;;23.31;91.17
64644;BME280;51056;50.330;7.914;2023-08-20T08:54:04;101176.38;;;23.35;91.35
64644;BME280;51056;50.330;7.914;2023-08-20T08:57:07;101164.69;;;23.46;90.95
64644;BME280;51056;50.330;7.914;2023-08-20T09:00:11;101165.91;;;23.52;90.17
64644;BME280;51056;50.330;7.914;2023-08-20T09:03:15;101167.84;;;23.59;89.13
64644;BME280;51056;50.330;7.914;2023-08-20T09:06:18;101161.72;;;23.67;88.35
64644;BME280;51056;50.330;7.914;2023-08-20T09:09:21;101170.00;;;23.74;87.99
64644;BME280;51056;50.330;7.914;2023-08-20T09:12:25;101172.78;;;23.82;87.47
64644;BME280;51056;50.330;7.914;2023-08-20T09:15:32;101164.59;;;23.83;86.92
64644;BME280;51056;50.330;7.914;2023-08-20T09:18:45;101164.00;;;23.89;87.04
64644;BME280;51056;50.330;7.914;2023-08-20T09:21:48;101160.66;;;24.05;86.45
64644;BME280;51056;50.330;7.914;2023-08-20T09:24:56;101161.06;;;24.10;84.84
64644;BME280;51056;50.330;7.914;2023-08-20T09:28:02;101160.88;;;24.12;84.82
64644;BME280;51056;50.330;7.914;2023-08-20T09:31:06;101160.28;;;24.18;84.98
64644;BME280;51056;50.330;7.914;2023-08-20T09:34:12;101162.34;;;24.24;84.71
64644;BME280;51056;50.330;7.914;2023-08-20T09:37:17;101162.41;;;24.32;83.66
64644;BME280;51056;50.330;7.914;2023-08-20T09:40:21;101160.56;;;24.33;83.28
64644;BME280;51056;50.330;7.914;2023-08-20T09:43:25;101156.06;;;24.33;83.99
64644;BME280;51056;50.330;7.914;2023-08-20T09:46:34;101162.78;;;24.37;82.83
64644;BME280;51056;50.330;7.914;2023-08-20T09:49:43;101158.84;;;24.42;82.40
64644;BME280;51056;50.330;7.914;2023-08-20T09:53:06;101159.69;;;24.42;82.40
64644;BME280;51056;50.330;7.914;2023-08-20T09:56:10;101158.97;;;24.58;80.81
64644;BME280;51056;50.330;7.914;2023-08-20T09:59:16;101161.66;;;24.58;80.23
64644;BME280;51056;50.330;7.914;2023-08-20T10:02:20;101161.03;;;24.64;80.58
64644;BME280;51056;50.330;7.914;2023-08-20T10:05:31;101154.88;;;24.72;81.60
64644;BME280;51056;50.330;7.914;2023-08-20T10:08:36;101152.59;;;24.77;80.75
64644;BME280;51056;50.330;7.914;2023-08-20T10:11:45;101145.22;;;25.05;77.54
64644;BME280;51056;50.330;7.914;2023-08-20T10:14:52;101140.03;;;25.03;74.81
64644;BME280;51056;50.330;7.914;2023-08-20T10:18:01;101138.19;;;25.04;74.93
64644;BME280;51056;50.330;7.914;2023-08-20T10:21:06;101139.38;;;25.10;73.37
64644;BME280;51056;50.330;7.914;2023-08-20T10:24:18;101136.56;;;25.11;73.77
64644;BME280;51056;50.330;7.914;2023-08-20T10:27:31;101137.09;;;25.15;74.34
64644;BME280;51056;50.330;7.914;2023-08-20T10:30:35;101135.81;;;25.27;73.83
64644;BME280;51056;50.330;7.914;2023-08-20T10:33:53;101135.38;;;25.48;70.63
64644;BME280;51056;50.330;7.914;2023-08-20T10:37:01;101134.03;;;25.44;67.21
64644;BME280;51056;50.330;7.914;2023-08-20T10:40:07;101128.69;;;25.44;67.53
64644;BME280;51056;50.330;7.914;2023-08-20T10:43:10;101133.41;;;25.50;68.66
64644;BME280;51056;50.330;7.914;2023-08-20T10:46:29;101134.31;;;25.75;67.64
64644;BME280;51056;50.330;7.914;2023-08-20T10:49:34;101130.97;;;25.81;69.15
64644;BME280;51056;50.330;7.914;2023-08-20T10:52:47;101129.28;;;25.80;66.44
64644;BME280;51056;50.330;7.914;2023-08-20T10:55:51;101123.59;;;25.75;65.27
64644;BME280;51056;50.330;7.914;2023-08-20T10:58:54;101119.09;;;25.84;64.26
64644;BME280;51056;50.330;7.914;2023-08-20T11:01:58;101126.78;;;25.79;65.09
64644;BME280;51056;50.330;7.914;2023-08-20T11:05:09;101125.13;;;25.86;66.70
64644;BME280;51056;50.330;7.914;2023-08-20T11:08:26;101125.28;;;25.84;65.77
64644;BME280;51056;50.330;7.914;2023-08-20T11:11:30;101127.75;;;25.78;65.27
64644;BME280;51056;50.330;7.914;2023-08-20T11:14:35;101122.63;;;25.92;65.00
64644;BME280;51056;50.330;7.914;2023-08-20T11:17:50;101122.47;;;26.02;65.17
64644;BME280;51056;50.330;7.914;2023-08-20T11:20:57;101117.59;;;26.06;66.34
64644;BME280;51056;50.330;7.914;2023-08-20T11:24:01;101117.13;;;26.27;64.96
64644;BME280;51056;50.330;7.914;2023-08-20T11:27:10;101121.47;;;26.28;64.55
64644;BME280;51056;50.330;7.914;2023-08-20T11:30:15;101122.78;;;26.40;63.64
64644;BME280;51056;50.330;7.914;2023-08-20T11:33:31;101113.78;;;26.49;62.71
64644;BME280;51056;50.330;7.914;2023-08-20T11:36:41;101109.72;;;26.61;62.43
64644;BME280;51056;50.330;7.914;2023-08-20T11:39:47;101118.22;;;26.81;62.66
64644;BME280;51056;50.330;7.914;2023-08-20T11:42:54;101119.53;;;26.94;61.12
64644;BME280;51056;50.330;7.914;2023-08-20T11:45:59;101114.66;;;26.97;59.25
64644;BME280;51056;50.330;7.914;2023-08-20T11:49:07;101114.47;;;26.99;58.62
64644;BME280;51056;50.330;7.914;2023-08-20T11:52:11;101106.69;;;27.20;58.71
64644;BME280;51056;50.330;7.914;2023-08-20T11:55:29;101098.41;;;27.38;57.00
64644;BME280;51056;50.330;7.914;2023-08-20T11:58:33;101101.00;;;27.54;56.82
64644;BME280;51056;50.330;7.914;2023-08-20T12:01:36;101104.41;;;27.71;55.17
64644;BME280;51056;50.330;7.914;2023-08-20T12:04:40;101105.75;;;27.98;53.97
64644;BME280;51056;50.330;7.914;2023-08-20T12:08:03;101096.38;;;27.94;54.66
64644;BME280;51056;50.330;7.914;2023-08-20T12:11:34;101102.06;;;28.14;55.09
64644;BME280;51056;50.330;7.914;2023-08-20T12:14:41;101090.53;;;28.28;54.50
64644;BME280;51056;50.330;7.914;2023-08-20T12:18:04;101091.09;;;28.39;53.84
64644;BME280;51056;50.330;7.914;2023-08-20T12:21:08;101092.56;;;28.49;54.36
64644;BME280;51056;50.330;7.914;2023-08-20T12:24:12;101088.00;;;28.65;53.71
64644;BME280;51056;50.330;7.914;2023-08-20T12:27:17;101077.16;;;28.73;52.19
64644;BME280;51056;50.330;7.914;2023-08-20T12:30:22;101087.19;;;28.79;52.89
64644;BME280;51056;50.330;7.914;2023-08-20T12:33:29;101088.94;;;28.72;51.08
64644;BME280;51056;50.330;7.914;2023-08-20T12:36:35;101079.09;;;28.64;50.85
64644;BME280;51056;50.330;7.914;2023-08-20T12:39:42;101071.22;;;28.63;49.55
64644;BME280;51056;50.330;7.914;2023-08-20T12:42:50;101068.44;;;28.71;50.17
64644;BME280;51056;50.330;7.914;2023-08-20T12:45:59;101071.19;;;28.92;49.37
64644;BME280;51056;50.330;7.914;2023-08-20T12:49:05;101071.56;;;29.19;49.06
64644;BME280;51056;50.330;7.914;2023-08-20T12:52:10;101057.22;;;29.33;48.29
64644;BME280;51056;50.330;7.914;2023-08-20T12:55:15;101062.06;;;29.59;47.47
64644;BME280;51056;50.330;7.914;2023-08-20T12:58:18;101058.25;;;29.90;47.83
64644;BME280;51056;50.330;7.914;2023-08-20T13:01:22;101054.56;;;30.19;46.22
64644;BME280;51056;50.330;7.914;2023-08-20T13:04:25;101051.69;;;30.27;46.32
64644;BME280;51056;50.330;7.914;2023-08-20T13:07:29;101053.59;;;30.33;45.34
64644;BME280;51056;50.330;7.914;2023-08-20T13:10:32;101051.47;;;30.22;45.84
64644;BME280;51056;50.330;7.914;2023-08-20T13:13:35;101049.38;;;30.24;47.84
64644;BME280;51056;50.330;7.914;2023-08-20T13:16:39;101048.84;;;29.86;45.54
64644;BME280;51056;50.330;7.914;2023-08-20T13:19:42;101048.50;;;29.68;50.71
64644;BME280;51056;50.330;7.914;2023-08-20T13:22:46;101045.72;;;29.82;51.82
64644;BME280;51056;50.330;7.914;2023-08-20T13:25:50;101051.66;;;29.99;52.51
64644;BME280;51056;50.330;7.914;2023-08-20T13:28:53;101050.47;;;30.08;53.17
64644;BME280;51056;50.330;7.914;2023-08-20T13:31:58;101045.28;;;30.28;52.70
64644;BME280;51056;50.330;7.914;2023-08-20T13:35:01;101041.25;;;30.46;49.66
64644;BME280;51056;50.330;7.914;2023-08-20T13:38:08;101035.13;;;30.65;47.71
64644;BME280;51056;50.330;7.914;2023-08-20T13:41:13;101037.81;;;31.07;48.13
64644;BME280;51056;50.330;7.914;2023-08-20T13:44:21;101034.22;;;31.67;45.84
64644;BME280;51056;50.330;7.914;2023-08-20T13:47:25;101030.50;;;32.22;44.19
64644;BME280;51056;50.330;7.914;2023-08-20T16:48:18;100923.56;;;31.33;48.54
64644;BME280;51056;50.330;7.914;2023-08-20T16:51:26;100932.28;;;31.08;48.84
64644;BME280;51056;50.330;7.914;2023-08-20T16:59:41;100928.75;;;30.46;51.59
64644;BME280;51056;50.330;7.914;2023-08-20T17:33:54;100947.25;;;28.64;60.98
64644;BME280;51056;50.330;7.914;2023-08-20T17:47:42;100953.47;;;28.05;63.40
64644;BME280;51056;50.330;7.914;2023-08-20T17:51:54;100972.59;;;27.73;64.11
64644;BME280;51056;50.330;7.914;2023-08-20T17:54:58;100965.41;;;27.65;65.51
64644;BME280;51056;50.330;7.914;2023-08-20T17:58:10;100968.72;;;27.52;67.04
64644;BME280;51056;50.330;7.914;2023-08-20T18:06:04;100972.94;;;27.24;67.54
64644;BME280;51056;50.330;7.914;2023-08-20T18:09:11;100977.38;;;27.08;68.77
64644;BME280;51056;50.330;7.914;2023-08-20T18:12:16;100980.16;;;26.92;69.03
64644;BME280;51056;50.330;7.914;2023-08-20T18:15:19;100985.13;;;26.72;70.30
64644;BME280;51056;50.330;7.914;2023-08-20T18:18:22;100977.97;;;26.64;70.57
64644;BME280;51056;50.330;7.914;2023-08-20T18:21:27;100992.91;;;26.51;72.33
64644;BME280;51056;50.330;7.914;2023-08-20T18:24:30;100993.13;;;26.25;73.30
64644;BME280;51056;50.330;7.914;2023-08-20T18:27:34;100995.84;;;26.16;73.97
64644;BME280;51056;50.330;7.914;2023-08-20T18:30:37;101000.88;;;25.95;74.91
64644;BME280;51056;50.330;7.914;2023-08-20T18:33:40;101001.22;;;25.84;75.38
64644;BME280;51056;50.330;7.914;2023-08-20T18:36:44;101001.88;;;25.69;76.03
64644;BME280;51056;50.330;7.914;2023-08-20T18:39:48;101012.56;;;25.61;76.21
64644;BME280;51056;50.330;7.914;2023-08-20T18:42:51;101017.25;;;25.51;77.39
64644;BME280;51056;50.330;7.914;2023-08-20T18:45:55;101021.75;;;25.42;79.32
64644;BME280;51056;50.330;7.914;2023-08-20T18:48:58;101030.75;;;25.33;80.48
64644;BME280;51056;50.330;7.914;2023-08-20T18:52:03;101040.28;;;25.19;81.21
64644;BME280;51056;50.330;7.914;2023-08-20T18:55:08;101040.59;;;25.16;81.21
64644;BME280;51056;50.330;7.914;2023-08-20T18:58:12;101042.50;;;24.98;81.45
64644;BME280;51056;50.330;7.914;2023-08-20T19:01:15;101042.81;;;24.95;81.48
64644;BME280;51056;50.330;7.914;2023-08-20T19:04:19;101058.38;;;24.91;81.74
64644;BME280;51056;50.330;7.914;2023-08-20T19:07:23;101069.00;;;24.75;83.16
64644;BME280;51056;50.330;7.914;2023-08-20T19:10:27;101068.78;;;24.68;83.81
64644;BME280;51056;50.330;7.914;2023-08-20T19:13:31;101068.91;;;24.58;83.81
64644;BME280;51056;50.330;7.914;2023-08-20T19:16:34;101082.00;;;24.44;85.12
64644;BME280;51056;50.330;7.914;2023-08-20T19:19:38;101088.63;;;24.40;84.96
64644;BME280;51056;50.330;7.914;2023-08-20T19:22:42;101083.91;;;24.33;84.54
64644;BME280;51056;50.330;7.914;2023-08-20T19:25:48;101089.66;;;24.21;85.46
64644;BME280;51056;50.330;7.914;2023-08-20T19:28:52;101093.13;;;24.13;85.62
64644;BME280;51056;50.330;7.914;2023-08-20T19:31:55;101091.69;;;24.01;86.73
64644;BME280;51056;50.330;7.914;2023-08-20T19:35:00;101091.72;;;24.09;85.76
64644;BME280;51056;50.330;7.914;2023-08-20T19:38:06;101092.94;;;24.14;83.43
64644;BME280;51056;50.330;7.914;2023-08-20T19:41:11;101091.28;;;24.13;84.21
64644;BME280;51056;50.330;7.914;2023-08-20T19:44:14;101097.94;;;24.09;84.61
64644;BME280;51056;50.330;7.914;2023-08-20T19:47:18;101101.31;;;23.94;86.80
64644;BME280;51056;50.330;7.914;2023-08-20T19:50:26;101104.19;;;23.82;87.62
64644;BME280;51056;50.330;7.914;2023-08-20T19:53:36;101103.97;;;23.76;88.41
64644;BME280;51056;50.330;7.914;2023-08-20T19:56:44;101111.44;;;23.72;87.89
64644;BME280;51056;50.330;7.914;2023-08-20T19:59:47;101118.66;;;23.62;88.51
64644;BME280;51056;50.330;7.914;2023-08-20T20:02:51;101122.59;;;23.58;89.55
64644;BME280;51056;50.330;7.914;2023-08-20T20:05:56;101119.25;;;23.56;89.67
64644;BME280;51056;50.330;7.914;2023-08-20T20:09:00;101123.59;;;23.57;89.60
64644;BME280;51056;50.330;7.914;2023-08-20T20:12:04;101124.41;;;23.57;89.17
64644;BME280;51056;50.330;7.914;2023-08-20T20:15:09;101127.16;;;23.48;89.65
64644;BME280;51056;50.330;7.914;2023-08-20T20:18:13;101129.44;;;23.42;89.40
64644;BME280;51056;50.330;7.914;2023-08-20T20:21:16;101129.88;;;23.38;89.55
64644;BME280;51056;50.330;7.914;2023-08-20T20:24:19;101136.03;;;23.38;89.55